Muir, Pennsylvania
Current Conditions -  °F | °C
As of 12:58 PM on Friday 19 Dec 2014 (Local Time) from KMUI Reporting Station
Broken Clouds Broken Clouds  
Wind Chill: 32°   Ceiling: 3800
Heat Index: 38°   Visibility: 10mi
Dew Point: 22°   Wind: 8mph
Humidity: 51%   Direction: 340°NNW
Pressure: 30.09"   Gusts: 17mph
Location:  40.59°N, 76.52°W
Report Text: KMUI 191758Z AUTO 34007G15KT 290V020 10SM BKN038 04/M06 A3009 RMK AO2 SLP197 T00351058 10039 20013 55005
Loading
Personal Weather Stations






























Interactive Weather Map New forecast layout! Learn more

10-Day Weather Forecast

Advertisements
Track Severe Weather on mobile